Time;durP1;ratioP1;P1;durP2;ratioP2;P2;SDS_P1;SDS_P2;PMS_P1;PMS_P2;Temp;Humidity;BMP_temperature;BMP_pressure;BME280_temperature;BME280_humidity;BME280_pressure;Samples;Min_cycle;Max_cycle;Signal;HPM_P1;HPM_P2
2021/09/16 00:01:21;;;;;;;0.63;0.30;;;15.80;84.80;;;;;;2030882;29;19904;-94
2021/09/16 00:02:41;;;;;;;1.35;0.57;;;15.80;84.80;;;;;;2033116;29;20032;-93
2021/09/16 00:04:08;;;;;;;2.13;0.50;;;15.70;84.80;;;;;;2038756;29;20032;-92
2021/09/16 00:05:27;;;;;;;3.08;0.55;;;15.70;84.90;;;;;;2044285;29;20035;-93
2021/09/16 00:06:48;;;;;;;1.75;0.50;;;15.70;85.00;;;;;;2056600;28;20028;-91
2021/09/16 00:08:09;;;;;;;2.25;0.40;;;15.70;85.60;;;;;;2038586;29;20040;-93
2021/09/16 00:09:29;;;;;;;0.82;0.47;;;15.70;85.10;;;;;;2043449;29;20056;-90
2021/09/16 00:10:52;;;;;;;1.83;0.50;;;15.70;85.10;;;;;;2037417;29;20080;-94
2021/09/16 00:12:14;;;;;;;0.98;0.40;;;15.70;85.20;;;;;;2046295;29;20271;-93
2021/09/16 00:13:33;;;;;;;1.58;0.50;;;15.60;85.20;;;;;;2044324;29;20028;-93
2021/09/16 00:14:55;;;;;;;1.25;0.40;;;15.60;85.20;;;;;;2040479;29;20021;-93
2021/09/16 00:16:20;;;;;;;2.05;0.50;;;15.60;85.30;;;;;;2045663;29;20039;-93
2021/09/16 00:17:42;;;;;;;2.65;0.43;;;15.60;85.30;;;;;;2050289;29;20023;-94
2021/09/16 00:19:01;;;;;;;1.05;0.43;;;15.60;85.40;;;;;;2051398;28;20039;-94
2021/09/16 00:20:27;;;;;;;0.90;0.47;;;15.60;85.50;;;;;;2046628;28;20048;-93
2021/09/16 00:21:48;;;;;;;1.30;0.40;;;15.60;85.50;;;;;;2039472;29;20048;-93
2021/09/16 00:23:08;;;;;;;1.70;0.40;;;15.60;85.50;;;;;;2048745;29;20047;-93
2021/09/16 00:24:30;;;;;;;0.43;0.40;;;15.60;85.50;;;;;;2057351;29;20036;-94
2021/09/16 00:25:49;;;;;;;1.67;0.50;;;15.60;85.50;;;;;;2041836;29;20039;-95
2021/09/16 00:27:13;;;;;;;1.23;0.50;;;15.60;85.50;;;;;;2049097;28;20043;-95
2021/09/16 00:28:40;;;;;;;2.42;0.52;;;15.60;85.50;;;;;;2039374;29;20020;-93
2021/09/16 00:30:01;;;;;;;1.33;0.40;;;15.50;85.50;;;;;;2035485;29;20052;-94
2021/09/16 00:31:23;;;;;;;0.70;0.40;;;15.50;85.60;;;;;;2041498;29;20032;-93
2021/09/16 00:32:44;;;;;;;1.50;0.52;;;15.50;85.60;;;;;;2042639;29;20087;-96
2021/09/16 00:34:03;;;;;;;2.05;0.50;;;15.50;85.60;;;;;;2063584;28;20027;-93
2021/09/16 00:35:26;;;;;;;0.90;0.47;;;15.50;85.70;;;;;;2046735;29;20028;-93
2021/09/16 00:36:47;;;;;;;1.40;0.50;;;15.50;85.70;;;;;;2049299;28;20032;-92
2021/09/16 00:38:09;;;;;;;1.45;0.40;;;15.50;85.70;;;;;;2057588;28;20031;-94
2021/09/16 00:39:30;;;;;;;1.80;0.60;;;15.50;85.80;;;;;;2048234;28;20024;-94
2021/09/16 00:40:49;;;;;;;1.95;0.50;;;15.50;85.80;;;;;;2040809;29;20020;-94
2021/09/16 00:42:14;;;;;;;0.77;0.50;;;15.50;85.90;;;;;;2056924;28;20039;-94
2021/09/16 00:43:33;;;;;;;2.08;0.50;;;15.40;85.90;;;;;;2052313;29;20024;-94
2021/09/16 00:44:53;;;;;;;1.70;0.50;;;15.50;86.00;;;;;;2054557;28;20090;-94
2021/09/16 00:46:14;;;;;;;;;;;15.40;85.90;;;;;;2045404;29;20044;-93
2021/09/16 00:47:34;;;;;;;1.33;0.50;;;15.40;85.90;;;;;;2043610;29;20459;-94
2021/09/16 00:48:57;;;;;;;0.98;0.40;;;15.40;85.90;;;;;;2048452;29;20503;-94
2021/09/16 00:50:21;;;;;;;1.65;0.40;;;15.40;85.90;;;;;;2050934;29;20646;-94
2021/09/16 00:51:46;;;;;;;1.02;0.40;;;15.40;86.00;;;;;;2039651;29;20048;-93
2021/09/16 00:53:08;;;;;;;1.60;0.60;;;15.40;86.00;;;;;;2046937;29;20048;-93
2021/09/16 00:54:31;;;;;;;1.70;0.50;;;15.40;86.00;;;;;;2043703;29;20060;-94
2021/09/16 00:55:53;;;;;;;1.23;0.57;;;15.40;86.10;;;;;;2040664;29;20035;-94
2021/09/16 00:57:17;;;;;;;1.30;0.40;;;15.40;86.00;;;;;;2048543;29;20043;-94
2021/09/16 00:58:41;;;;;;;1.10;0.47;;;15.40;86.00;;;;;;2042628;29;20043;-93
2021/09/16 01:00:05;;;;;;;1.95;0.47;;;15.40;86.10;;;;;;2031958;29;20032;-93
2021/09/16 01:01:26;;;;;;;0.70;0.40;;;15.40;86.00;;;;;;2041275;29;20075;-94
2021/09/16 01:02:47;;;;;;;;;;;15.50;86.00;;;;;;2041429;29;20028;-94
2021/09/16 01:04:07;;;;;;;1.27;0.43;;;15.40;85.90;;;;;;2036015;29;19911;-92
2021/09/16 01:05:26;;;;;;;0.57;0.40;;;15.50;85.90;;;;;;2041584;28;20580;-94
2021/09/16 01:06:47;;;;;;;1.23;0.50;;;15.50;85.90;;;;;;2031900;29;20919;-94
2021/09/16 01:08:07;;;;;;;2.00;0.70;;;15.50;85.90;;;;;;2042912;29;20035;-94
2021/09/16 01:09:27;;;;;;;1.05;0.47;;;15.50;85.90;;;;;;2034081;29;20059;-93
2021/09/16 01:10:47;;;;;;;1.75;0.63;;;15.50;86.50;;;;;;2036043;29;20075;-94
2021/09/16 01:12:06;;;;;;;1.10;0.73;;;15.50;85.90;;;;;;2033877;29;20040;-94
2021/09/16 01:13:26;;;;;;;1.77;0.82;;;15.50;85.90;;;;;;2042713;29;20043;-94
2021/09/16 01:14:45;;;;;;;2.50;0.57;;;15.50;85.90;;;;;;2045980;28;20117;-93
2021/09/16 01:16:05;;;;;;;1.05;0.47;;;15.50;85.90;;;;;;2040729;29;20510;-93
2021/09/16 01:17:24;;;;;;;1.42;0.40;;;15.60;85.90;;;;;;2023172;29;20033;-93
2021/09/16 01:18:43;;;;;;;2.33;0.40;;;15.50;85.90;;;;;;2023289;29;20075;-93
2021/09/16 01:20:03;;;;;;;2.47;0.60;;;15.50;86.00;;;;;;2030178;29;20052;-94
2021/09/16 01:21:23;;;;;;;;;;;15.50;86.00;;;;;;2038896;29;20126;-93
2021/09/16 01:22:43;;;;;;;0.90;0.47;;;15.50;85.90;;;;;;2041833;29;19915;-94
2021/09/16 01:24:02;;;;;;;1.17;0.47;;;15.50;86.00;;;;;;2029432;29;20052;-94
2021/09/16 01:25:30;;;;;;;0.90;0.32;;;15.50;86.00;;;;;;2030448;29;20036;-93
2021/09/16 01:26:49;;;;;;;1.42;0.45;;;15.50;86.00;;;;;;2034000;29;20471;-95
2021/09/16 01:28:08;;;;;;;2.60;0.40;;;15.40;86.00;;;;;;2041591;29;20056;-93
2021/09/16 01:29:28;;;;;;;1.30;0.30;;;15.40;86.00;;;;;;2041050;29;20036;-92
2021/09/16 01:30:48;;;;;;;0.80;0.30;;;15.40;86.10;;;;;;2045582;28;20095;-92
2021/09/16 01:32:08;;;;;;;1.65;0.40;;;15.40;86.20;;;;;;2050849;28;20047;-92
2021/09/16 01:33:28;;;;;;;0.85;0.30;;;15.40;86.20;;;;;;2044991;29;20051;-92
2021/09/16 01:34:47;;;;;;;2.67;0.50;;;15.40;86.20;;;;;;2041684;29;20031;-92
2021/09/16 01:36:10;;;;;;;1.63;0.30;;;15.40;86.30;;;;;;2041964;29;20036;-92
2021/09/16 01:37:30;;;;;;;1.33;0.43;;;15.40;86.40;;;;;;2047083;29;20020;-92
2021/09/16 01:38:49;;;;;;;1.58;0.40;;;15.40;86.40;;;;;;2057830;29;20074;-92
2021/09/16 01:40:10;;;;;;;2.08;0.50;;;15.40;86.40;;;;;;2036938;29;20040;-91
2021/09/16 01:41:30;;;;;;;0.85;0.40;;;15.40;86.50;;;;;;2052629;29;20035;-91
2021/09/16 01:42:50;;;;;;;1.23;0.30;;;15.40;86.50;;;;;;2044103;29;20024;-94
2021/09/16 01:44:09;;;;;;;1.73;0.30;;;15.30;86.50;;;;;;2041749;29;20039;-94
2021/09/16 01:45:29;;;;;;;0.75;0.30;;;15.30;86.50;;;;;;2041467;29;20055;-93
2021/09/16 01:46:48;;;;;;;0.63;0.40;;;15.30;86.60;;;;;;2032690;29;20048;-93
2021/09/16 01:48:07;;;;;;;3.25;0.40;;;15.30;86.60;;;;;;2039698;29;20122;-94
2021/09/16 01:49:26;;;;;;;0.70;0.30;;;15.30;86.70;;;;;;2044486;29;20047;-94
2021/09/16 01:50:48;;;;;;;0.52;0.30;;;15.30;86.70;;;;;;2045123;29;20048;-94
2021/09/16 01:52:07;;;;;;;1.30;0.40;;;15.30;86.80;;;;;;2045991;29;20454;-93
2021/09/16 01:53:27;;;;;;;0.65;0.25;;;15.20;86.70;;;;;;2047593;29;20043;-94
2021/09/16 01:54:46;;;;;;;0.50;0.20;;;15.30;86.80;;;;;;2044279;29;20139;-93
2021/09/16 01:56:06;;;;;;;0.40;0.40;;;15.20;86.80;;;;;;2024869;29;20089;-93
2021/09/16 01:57:27;;;;;;;1.00;0.35;;;15.20;86.90;;;;;;2031601;29;20128;-94
2021/09/16 01:58:46;;;;;;;1.58;0.47;;;15.20;86.90;;;;;;2044033;29;20055;-94
2021/09/16 02:00:08;;;;;;;2.65;0.57;;;15.20;87.00;;;;;;2052735;29;20104;-91
2021/09/16 02:01:27;;;;;;;2.20;0.43;;;15.20;87.00;;;;;;2042411;29;20032;-90
2021/09/16 02:02:46;;;;;;;0.95;0.40;;;15.20;87.10;;;;;;2045666;29;20035;-92
2021/09/16 02:04:05;;;;;;;0.95;0.32;;;15.20;87.10;;;;;;2046843;29;20067;-94
2021/09/16 02:05:25;;;;;;;1.10;0.50;;;15.20;87.10;;;;;;2050520;29;20126;-94
2021/09/16 02:06:45;;;;;;;1.05;0.50;;;15.20;87.20;;;;;;2025666;29;20033;-93
2021/09/16 02:08:04;;;;;;;1.23;0.52;;;15.20;87.20;;;;;;2045129;29;20043;-93
2021/09/16 02:09:24;;;;;;;2.15;0.50;;;15.20;87.90;;;;;;2039645;29;20048;-94
2021/09/16 02:10:43;;;;;;;1.38;0.43;;;15.10;87.20;;;;;;2050370;29;20031;-94
2021/09/16 02:12:02;;;;;;;2.35;0.40;;;15.10;87.40;;;;;;2036371;29;20052;-94
2021/09/16 02:13:22;;;;;;;1.58;0.40;;;15.10;87.30;;;;;;2034810;29;20121;-93
2021/09/16 02:14:41;;;;;;;0.90;0.40;;;15.10;87.40;;;;;;2027791;29;20036;-94
2021/09/16 02:16:00;;;;;;;0.90;0.30;;;15.10;87.40;;;;;;2031185;29;21287;-93
2021/09/16 02:17:20;;;;;;;1.27;0.47;;;15.10;87.40;;;;;;2024119;29;20048;-94
2021/09/16 02:18:39;;;;;;;1.52;0.60;;;15.10;87.40;;;;;;2039180;29;20055;-94
2021/09/16 02:19:58;;;;;;;2.05;0.50;;;15.10;87.40;;;;;;2035138;29;20045;-94
2021/09/16 02:21:18;;;;;;;1.33;0.60;;;15.10;87.40;;;;;;2032511;29;20067;-93
2021/09/16 02:22:37;;;;;;;2.58;0.52;;;15.10;87.50;;;;;;2031506;29;20044;-94
2021/09/16 02:23:56;;;;;;;1.50;0.50;;;15.10;87.50;;;;;;2036798;29;20051;-93
2021/09/16 02:25:16;;;;;;;2.97;0.70;;;15.10;87.40;;;;;;2039234;29;20039;-94
2021/09/16 02:26:35;;;;;;;1.85;0.47;;;15.10;87.40;;;;;;2043025;29;20040;-94
2021/09/16 02:27:55;;;;;;;1.48;0.45;;;15.10;87.40;;;;;;2047564;29;20043;-93
2021/09/16 02:29:14;;;;;;;1.10;0.40;;;15.20;87.40;;;;;;2043009;29;20043;-94
2021/09/16 02:30:34;;;;;;;1.75;0.55;;;15.20;87.40;;;;;;2029324;29;20059;-94
2021/09/16 02:31:53;;;;;;;0.88;0.40;;;15.20;87.40;;;;;;2039779;29;20506;-93
2021/09/16 02:33:12;;;;;;;0.50;0.30;;;15.20;87.30;;;;;;2037624;29;20109;-94
2021/09/16 02:34:32;;;;;;;2.60;0.60;;;15.20;87.30;;;;;;2034447;29;20036;-93
2021/09/16 02:35:54;;;;;;;1.17;0.45;;;15.20;87.30;;;;;;2039983;29;20047;-94
2021/09/16 02:37:14;;;;;;;1.23;0.63;;;15.20;87.30;;;;;;2043060;29;20044;-94
2021/09/16 02:38:33;;;;;;;1.33;0.50;;;15.30;87.30;;;;;;2035004;29;20044;-95
2021/09/16 02:39:52;;;;;;;0.63;0.40;;;15.20;87.40;;;;;;2040589;29;20039;-93
2021/09/16 02:41:11;;;;;;;0.98;0.40;;;15.30;87.30;;;;;;2041710;29;20036;-93
2021/09/16 02:42:30;;;;;;;1.38;0.50;;;15.30;87.30;;;;;;2045967;28;20043;-94
2021/09/16 02:43:50;;;;;;;2.05;0.40;;;15.30;87.20;;;;;;2038771;29;20024;-94
2021/09/16 02:45:10;;;;;;;1.02;0.45;;;15.30;87.20;;;;;;2045361;28;20016;-92
2021/09/16 02:46:30;;;;;;;1.10;0.43;;;15.30;87.20;;;;;;2048522;29;20032;-89
2021/09/16 02:47:49;;;;;;;2.58;0.52;;;15.40;87.20;;;;;;2049215;29;20020;-94
2021/09/16 02:49:09;;;;;;;1.95;0.60;;;15.40;87.10;;;;;;2055339;28;20047;-92
2021/09/16 02:50:28;;;;;;;1.38;0.40;;;15.40;87.10;;;;;;2051803;29;20063;-94
2021/09/16 02:51:47;;;;;;;0.80;0.40;;;15.40;87.10;;;;;;2036757;29;20131;-93
2021/09/16 02:53:06;;;;;;;1.35;0.50;;;15.40;87.10;;;;;;2041854;29;20072;-92
2021/09/16 02:54:26;;;;;;;2.35;0.50;;;15.40;87.00;;;;;;2040273;29;20048;-94
2021/09/16 02:55:46;;;;;;;1.73;0.63;;;15.40;87.60;;;;;;2046698;29;20051;-94
2021/09/16 02:57:06;;;;;;;1.67;0.43;;;15.40;87.00;;;;;;2036337;29;20047;-94
2021/09/16 02:58:25;;;;;;;1.88;0.60;;;15.40;87.00;;;;;;2043387;29;20070;-95
2021/09/16 02:59:45;;;;;;;1.27;0.50;;;15.40;87.00;;;;;;2052240;29;20052;-95
2021/09/16 03:01:04;;;;;;;0.82;0.40;;;15.40;87.00;;;;;;2049405;28;20047;-94
2021/09/16 03:02:23;;;;;;;1.30;0.50;;;15.40;87.00;;;;;;2043551;29;20051;-94
2021/09/16 03:03:43;;;;;;;1.17;0.50;;;15.50;87.10;;;;;;2048737;28;20129;-93
2021/09/16 03:05:03;;;;;;;1.48;0.50;;;15.50;87.10;;;;;;2050283;28;20050;-93
2021/09/16 03:06:22;;;;;;;2.70;0.70;;;15.50;87.10;;;;;;2047271;29;20043;-94
2021/09/16 03:07:41;;;;;;;1.00;0.45;;;15.50;87.20;;;;;;2046909;29;20070;-94
2021/09/16 03:09:00;;;;;;;1.45;0.60;;;15.50;87.20;;;;;;2038812;29;20566;-94
2021/09/16 03:10:20;;;;;;;0.82;0.43;;;15.50;87.10;;;;;;2036448;29;20051;-93
2021/09/16 03:11:39;;;;;;;1.10;0.50;;;15.50;87.10;;;;;;2048346;29;20162;-95
2021/09/16 03:13:00;;;;;;;1.50;0.55;;;15.50;87.20;;;;;;2048037;29;20040;-93
2021/09/16 03:14:19;;;;;;;0.95;0.40;;;15.50;87.20;;;;;;2042780;29;20522;-94
2021/09/16 03:15:39;;;;;;;1.58;0.52;;;15.50;87.20;;;;;;2039517;29;20043;-93
2021/09/16 03:16:58;;;;;;;1.00;0.50;;;15.50;87.20;;;;;;2055145;28;20124;-93
2021/09/16 03:18:17;;;;;;;1.70;0.50;;;15.50;87.20;;;;;;2053943;28;20179;-93
2021/09/16 03:19:37;;;;;;;1.77;0.50;;;15.50;87.20;;;;;;2036696;29;20082;-93
2021/09/16 03:20:56;;;;;;;1.00;0.45;;;15.50;87.30;;;;;;2036926;28;20043;-93
2021/09/16 03:22:15;;;;;;;1.63;0.60;;;15.50;87.30;;;;;;2045365;29;20502;-94
2021/09/16 03:23:35;;;;;;;0.55;0.40;;;15.50;87.30;;;;;;2049954;28;20035;-92
2021/09/16 03:24:54;;;;;;;1.10;0.40;;;15.50;87.40;;;;;;2042228;29;20518;-94
2021/09/16 03:26:14;;;;;;;0.68;0.50;;;15.50;87.50;;;;;;2047055;29;20075;-94
2021/09/16 03:27:33;;;;;;;1.55;0.68;;;15.50;87.50;;;;;;2039605;29;20475;-95
2021/09/16 03:28:52;;;;;;;2.15;0.60;;;15.50;87.60;;;;;;2045216;28;20051;-93
2021/09/16 03:30:13;;;;;;;1.85;0.60;;;15.50;87.60;;;;;;2047358;29;20047;-94
2021/09/16 03:31:33;;;;;;;1.15;0.40;;;15.50;87.70;;;;;;2046696;29;20039;-93
2021/09/16 03:32:52;;;;;;;1.52;0.70;;;15.50;87.70;;;;;;2045859;28;20522;-93
2021/09/16 03:34:11;;;;;;;1.30;0.50;;;15.50;87.80;;;;;;2047438;29;20079;-94
2021/09/16 03:35:31;;;;;;;1.65;0.60;;;15.50;87.80;;;;;;2046845;29;20040;-93
2021/09/16 03:36:50;;;;;;;2.63;0.85;;;15.50;87.90;;;;;;2046973;29;20154;-92
2021/09/16 03:38:10;;;;;;;2.53;0.82;;;15.40;87.90;;;;;;2046363;29;20035;-93
2021/09/16 03:39:29;;;;;;;1.35;0.60;;;15.50;88.00;;;;;;2054635;28;20082;-93
2021/09/16 03:40:48;;;;;;;3.05;0.70;;;15.50;88.00;;;;;;2041717;29;20055;-94
2021/09/16 03:42:07;;;;;;;1.83;0.52;;;15.40;88.00;;;;;;2044226;29;20106;-93
2021/09/16 03:43:27;;;;;;;1.20;0.70;;;15.40;88.00;;;;;;2034400;29;20112;-94
2021/09/16 03:44:46;;;;;;;2.05;0.70;;;15.40;88.10;;;;;;2043319;28;20074;-93
2021/09/16 03:46:06;;;;;;;1.48;0.70;;;15.40;88.10;;;;;;2041683;29;20043;-92
2021/09/16 03:47:25;;;;;;;1.88;0.77;;;15.40;88.20;;;;;;2037610;29;20031;-92
2021/09/16 03:48:44;;;;;;;1.70;0.75;;;15.50;88.30;;;;;;2049295;29;20039;-93
2021/09/16 03:50:04;;;;;;;1.88;0.90;;;15.40;88.30;;;;;;2038102;29;20507;-92
2021/09/16 03:51:24;;;;;;;1.95;0.85;;;15.40;88.40;;;;;;2054881;28;20557;-93
2021/09/16 03:52:43;;;;;;;3.63;0.90;;;15.40;88.40;;;;;;2051372;29;20043;-92
2021/09/16 03:54:02;;;;;;;3.00;1.08;;;15.40;88.50;;;;;;2036635;29;20052;-92
2021/09/16 03:55:22;;;;;;;1.75;0.80;;;15.40;88.60;;;;;;2036953;29;20036;-92
2021/09/16 03:56:42;;;;;;;1.80;0.85;;;15.30;88.60;;;;;;2036438;29;20040;-93
2021/09/16 03:58:01;;;;;;;1.50;0.93;;;15.30;88.60;;;;;;2038567;29;20071;-93
2021/09/16 03:59:20;;;;;;;2.05;0.80;;;15.30;88.70;;;;;;2033532;29;20044;-93
2021/09/16 04:00:39;;;;;;;2.95;0.95;;;15.30;88.90;;;;;;2041050;29;20052;-93
2021/09/16 04:01:59;;;;;;;2.40;1.00;;;15.30;89.00;;;;;;2034225;29;20127;-93
2021/09/16 04:03:18;;;;;;;1.73;0.77;;;15.30;89.10;;;;;;2039578;29;20088;-93
2021/09/16 04:04:37;;;;;;;1.13;0.70;;;15.30;89.10;;;;;;2034135;29;20032;-93
2021/09/16 04:05:56;;;;;;;1.70;0.88;;;15.30;89.20;;;;;;2039984;29;20051;-94
2021/09/16 04:07:16;;;;;;;1.90;0.70;;;15.20;89.30;;;;;;2026759;29;20520;-93
2021/09/16 04:08:35;;;;;;;1.60;0.90;;;15.20;89.40;;;;;;2043344;29;20035;-93
2021/09/16 04:09:54;;;;;;;3.33;0.80;;;15.30;89.50;;;;;;2032043;29;20087;-93
2021/09/16 04:11:14;;;;;;;2.08;0.70;;;15.30;89.60;;;;;;2044278;29;20043;-93
2021/09/16 04:12:34;;;;;;;1.38;0.80;;;15.20;89.60;;;;;;2032893;29;20036;-93
2021/09/16 04:13:53;;;;;;;1.42;0.80;;;15.20;89.70;;;;;;2038948;29;20215;-93
2021/09/16 04:15:13;;;;;;;1.15;0.68;;;15.30;89.80;;;;;;2042322;29;20059;-93
2021/09/16 04:16:33;;;;;;;1.40;0.63;;;15.30;89.80;;;;;;2039163;29;20032;-93
2021/09/16 04:17:52;;;;;;;1.15;0.60;;;15.20;89.70;;;;;;2034405;29;20040;-94
2021/09/16 04:19:11;;;;;;;1.63;0.70;;;15.20;89.80;;;;;;2036450;29;20040;-94
2021/09/16 04:20:30;;;;;;;1.98;0.85;;;15.20;89.80;;;;;;2041916;29;20506;-93
2021/09/16 04:21:50;;;;;;;2.10;0.70;;;15.20;89.90;;;;;;2036937;29;20031;-93
2021/09/16 04:23:09;;;;;;;1.67;0.60;;;15.20;90.00;;;;;;2038504;29;20047;-93
2021/09/16 04:24:29;;;;;;;1.08;0.50;;;15.20;90.00;;;;;;2040497;29;20068;-94
2021/09/16 04:25:48;;;;;;;1.98;0.68;;;15.20;90.00;;;;;;2034459;29;20048;-93
2021/09/16 04:27:09;;;;;;;2.20;0.55;;;15.20;90.00;;;;;;2031429;29;20072;-93
2021/09/16 04:28:28;;;;;;;;;;;15.20;90.00;;;;;;2029737;29;20045;-93
2021/09/16 04:29:48;;;;;;;1.90;0.70;;;15.20;90.00;;;;;;2031038;29;19998;-93
2021/09/16 04:31:07;;;;;;;1.45;0.60;;;15.20;90.00;;;;;;2026851;29;20044;-93
2021/09/16 04:32:26;;;;;;;2.25;0.65;;;15.20;90.00;;;;;;2029032;29;20040;-94
2021/09/16 04:33:45;;;;;;;3.40;0.60;;;15.20;90.10;;;;;;2034306;29;20136;-93
2021/09/16 04:35:06;;;;;;;1.85;0.50;;;15.20;90.10;;;;;;2044201;28;20052;-93
2021/09/16 04:36:26;;;;;;;1.20;0.50;;;15.20;90.10;;;;;;2042096;29;20473;-95
2021/09/16 04:37:45;;;;;;;1.20;0.40;;;15.20;90.10;;;;;;2041992;28;20186;-92
2021/09/16 04:39:05;;;;;;;2.08;0.50;;;15.20;90.10;;;;;;2041400;29;20405;-93
2021/09/16 04:40:24;;;;;;;3.05;0.65;;;15.20;90.20;;;;;;2037225;29;20043;-93
2021/09/16 04:41:43;;;;;;;1.33;0.60;;;15.20;90.20;;;;;;2046472;29;20035;-93
2021/09/16 04:43:02;;;;;;;1.10;0.50;;;15.20;90.20;;;;;;2040682;29;20194;-93
2021/09/16 04:44:21;;;;;;;2.38;0.65;;;15.20;90.20;;;;;;2030642;29;20040;-94
2021/09/16 04:45:40;;;;;;;0.95;0.47;;;15.20;90.20;;;;;;2035122;29;20048;-92
2021/09/16 04:47:00;;;;;;;0.75;0.50;;;15.20;90.20;;;;;;2041798;29;20134;-93
2021/09/16 04:48:19;;;;;;;1.20;0.50;;;15.20;90.20;;;;;;2038751;29;20040;-93
2021/09/16 04:49:38;;;;;;;2.25;0.50;;;15.20;90.20;;;;;;2046381;29;20035;-93
2021/09/16 04:50:57;;;;;;;1.63;0.57;;;15.20;90.20;;;;;;2049720;28;20039;-93
2021/09/16 04:52:17;;;;;;;1.67;0.52;;;15.20;90.20;;;;;;2045473;29;20036;-93
2021/09/16 04:53:37;;;;;;;1.70;0.45;;;15.30;90.30;;;;;;2041102;29;20059;-93
2021/09/16 04:54:56;;;;;;;0.65;0.40;;;15.20;90.30;;;;;;2044668;29;20043;-92
2021/09/16 04:56:15;;;;;;;1.70;0.50;;;15.20;90.30;;;;;;2057136;28;20046;-93
2021/09/16 04:57:35;;;;;;;1.52;0.50;;;15.20;90.30;;;;;;2046206;29;20032;-92
2021/09/16 04:58:55;;;;;;;1.23;0.50;;;15.20;90.30;;;;;;2043431;29;20044;-94
2021/09/16 05:00:14;;;;;;;0.50;0.40;;;15.20;90.30;;;;;;2046977;29;20032;-94
2021/09/16 05:01:34;;;;;;;1.75;0.60;;;15.30;90.30;;;;;;2048979;29;20043;-93
2021/09/16 05:02:53;;;;;;;1.15;0.50;;;15.20;90.30;;;;;;2056786;28;20420;-95
2021/09/16 05:04:15;;;;;;;1.88;0.50;;;15.20;90.30;;;;;;2041873;29;20036;-91
2021/09/16 05:05:34;;;;;;;1.73;0.43;;;15.20;90.30;;;;;;2054543;28;20035;-90
2021/09/16 05:06:54;;;;;;;2.72;0.50;;;15.20;90.40;;;;;;2047923;28;20035;-91
2021/09/16 05:08:15;;;;;;;1.65;0.47;;;15.20;90.40;;;;;;2038317;29;20394;-91
2021/09/16 05:09:35;;;;;;;1.60;0.38;;;15.20;90.40;;;;;;2044686;29;20529;-92
2021/09/16 05:10:54;;;;;;;1.17;0.50;;;15.20;90.40;;;;;;2049394;28;20473;-93
2021/09/16 05:12:14;;;;;;;1.08;0.30;;;15.20;90.40;;;;;;2052059;28;20047;-92
2021/09/16 05:13:33;;;;;;;2.50;0.75;;;15.20;90.40;;;;;;2055922;28;20034;-92
2021/09/16 05:14:53;;;;;;;0.82;0.40;;;15.20;90.40;;;;;;2044962;29;20044;-94
2021/09/16 05:16:12;;;;;;;0.85;0.60;;;15.20;90.40;;;;;;2043426;29;20043;-93
2021/09/16 05:17:32;;;;;;;1.23;0.50;;;15.20;90.40;;;;;;2046319;29;20051;-92
2021/09/16 05:18:51;;;;;;;3.05;0.40;;;15.20;90.40;;;;;;2045598;29;20039;-93
2021/09/16 05:20:11;;;;;;;0.93;0.50;;;15.20;90.40;;;;;;2028662;29;20040;-92
2021/09/16 05:21:31;;;;;;;1.73;0.40;;;15.20;90.40;;;;;;2040373;29;20039;-91
2021/09/16 05:22:50;;;;;;;1.35;0.45;;;15.20;90.40;;;;;;2033416;29;20066;-91
2021/09/16 05:24:12;;;;;;;0.90;0.47;;;15.20;90.40;;;;;;2040017;29;20032;-92
2021/09/16 05:25:31;;;;;;;1.95;0.60;;;15.20;90.40;;;;;;2048456;28;20039;-92
2021/09/16 05:26:53;;;;;;;1.20;0.40;;;15.20;90.40;;;;;;2057666;28;20125;-91
2021/09/16 05:28:13;;;;;;;0.80;0.43;;;15.20;90.50;;;;;;2050741;28;20079;-92
2021/09/16 05:29:32;;;;;;;1.02;0.40;;;15.20;90.50;;;;;;2043187;29;20044;-91
2021/09/16 05:30:52;;;;;;;2.33;0.68;;;15.20;90.50;;;;;;2059243;28;20043;-93
2021/09/16 05:32:12;;;;;;;1.33;0.50;;;15.20;90.50;;;;;;2068956;28;20054;-91
2021/09/16 05:33:32;;;;;;;1.08;0.45;;;15.20;90.50;;;;;;2041096;29;20036;-91
2021/09/16 05:34:51;;;;;;;1.85;0.60;;;15.20;90.50;;;;;;2045312;29;20043;-90
2021/09/16 05:36:10;;;;;;;0.80;0.40;;;15.20;90.50;;;;;;2056928;28;20075;-92
2021/09/16 05:37:30;;;;;;;1.15;0.50;;;15.20;90.50;;;;;;2034169;29;20091;-94
2021/09/16 05:38:49;;;;;;;1.35;0.43;;;15.20;90.50;;;;;;2040341;29;20040;-91
2021/09/16 05:40:10;;;;;;;1.05;0.40;;;15.20;90.50;;;;;;2053593;28;20547;-92
2021/09/16 05:41:30;;;;;;;;;;;15.20;90.50;;;;;;2038962;29;20452;-92
2021/09/16 05:42:50;;;;;;;0.73;0.40;;;15.20;90.50;;;;;;2046633;28;19914;-93
2021/09/16 05:44:10;;;;;;;0.73;0.40;;;15.20;90.50;;;;;;2051580;29;20043;-92
2021/09/16 05:45:30;;;;;;;0.65;0.30;;;15.20;90.50;;;;;;2065270;28;20035;-92
2021/09/16 05:46:50;;;;;;;0.80;0.40;;;15.20;90.50;;;;;;2052971;28;20036;-90
2021/09/16 05:48:09;;;;;;;1.48;0.47;;;15.20;90.50;;;;;;2045035;29;20032;-90
2021/09/16 05:49:29;;;;;;;1.85;0.52;;;15.20;90.50;;;;;;2045131;29;20032;-92
2021/09/16 05:50:49;;;;;;;1.38;0.50;;;15.20;90.40;;;;;;2053032;28;20036;-89
2021/09/16 05:52:08;;;;;;;2.47;0.60;;;15.20;90.40;;;;;;2055114;28;20027;-90
2021/09/16 05:53:29;;;;;;;1.17;0.40;;;15.20;90.40;;;;;;2053117;28;20047;-92
2021/09/16 05:54:49;;;;;;;2.63;0.50;;;15.20;90.40;;;;;;2047329;28;20044;-92
2021/09/16 05:56:09;;;;;;;0.97;0.33;;;15.20;90.40;;;;;;2054878;28;20027;-91
2021/09/16 05:57:28;;;;;;;1.20;0.32;;;15.20;90.40;;;;;;2055656;29;20028;-93
2021/09/16 05:58:48;;;;;;;0.57;0.32;;;15.20;90.50;;;;;;2049316;29;20047;-93
2021/09/16 06:00:10;;;;;;;1.10;0.50;;;15.20;90.50;;;;;;2052520;29;20043;-93
2021/09/16 06:01:30;;;;;;;1.38;0.50;;;15.20;90.50;;;;;;2049800;29;20039;-93
2021/09/16 06:02:50;;;;;;;0.35;0.30;;;15.20;90.50;;;;;;2043420;29;20079;-92
2021/09/16 06:04:10;;;;;;;0.88;0.50;;;15.20;90.50;;;;;;2050971;28;20047;-93
2021/09/16 06:05:29;;;;;;;2.25;0.40;;;15.20;90.50;;;;;;2050892;29;20032;-92
2021/09/16 06:06:48;;;;;;;1.73;0.40;;;15.20;90.60;;;;;;2051636;29;20040;-92
2021/09/16 06:08:08;;;;;;;1.33;0.50;;;15.20;90.40;;;;;;2049653;28;20043;-91
2021/09/16 06:09:27;;;;;;;2.42;0.50;;;15.20;90.60;;;;;;2055118;28;20068;-93
2021/09/16 06:10:47;;;;;;;0.30;0.25;;;15.20;90.60;;;;;;2050807;28;20047;-92
2021/09/16 06:12:07;;;;;;;0.50;0.40;;;15.10;90.60;;;;;;2038396;29;20044;-92
2021/09/16 06:13:27;;;;;;;;;;;15.10;90.60;;;;;;2048793;29;20035;-92
2021/09/16 06:14:46;;;;;;;0.52;0.30;;;15.10;90.60;;;;;;2058625;28;19898;-93
2021/09/16 06:16:06;;;;;;;1.33;0.40;;;15.10;90.60;;;;;;2052166;28;20043;-92
2021/09/16 06:17:26;;;;;;;1.35;0.30;;;15.10;90.60;;;;;;2051417;29;20047;-92
2021/09/16 06:18:46;;;;;;;1.77;0.40;;;15.10;90.60;;;;;;2050281;29;20119;-93
2021/09/16 06:20:06;;;;;;;1.17;0.40;;;15.10;90.60;;;;;;2050830;29;20271;-93
2021/09/16 06:21:26;;;;;;;2.15;0.50;;;15.10;90.60;;;;;;2053480;28;20035;-92
2021/09/16 06:22:46;;;;;;;0.85;0.32;;;15.10;90.60;;;;;;2053141;28;20054;-91
2021/09/16 06:24:05;;;;;;;1.80;0.50;;;15.10;90.60;;;;;;2057674;28;20035;-91
2021/09/16 06:25:28;;;;;;;1.02;0.43;;;15.10;90.60;;;;;;2038434;29;20040;-90
2021/09/16 06:26:47;;;;;;;1.67;0.50;;;15.10;90.60;;;;;;2055775;28;20034;-90
2021/09/16 06:28:07;;;;;;;1.23;0.40;;;15.10;90.60;;;;;;2043225;29;20525;-90
2021/09/16 06:29:26;;;;;;;1.05;0.50;;;15.10;90.60;;;;;;2037765;29;20163;-90
2021/09/16 06:30:45;;;;;;;1.17;0.40;;;15.10;90.60;;;;;;2050905;28;20035;-90
2021/09/16 06:32:06;;;;;;;1.77;0.55;;;15.10;90.60;;;;;;2063636;28;20027;-89
2021/09/16 06:33:25;;;;;;;1.15;0.45;;;15.10;90.60;;;;;;2059449;29;20067;-91
2021/09/16 06:34:45;;;;;;;1.02;0.40;;;15.10;90.60;;;;;;2052883;29;20023;-90
2021/09/16 06:36:05;;;;;;;1.40;0.47;;;15.10;90.60;;;;;;2051111;29;20047;-90
2021/09/16 06:37:24;;;;;;;1.48;0.50;;;15.10;90.60;;;;;;2048506;29;20031;-89
2021/09/16 06:38:44;;;;;;;1.33;0.50;;;15.10;90.60;;;;;;2038530;29;20070;-90
2021/09/16 06:40:04;;;;;;;1.35;0.47;;;15.10;90.60;;;;;;2031991;29;20040;-91
2021/09/16 06:41:23;;;;;;;0.95;0.50;;;15.10;90.60;;;;;;2044845;29;20078;-90
2021/09/16 06:42:43;;;;;;;0.95;0.50;;;15.10;90.60;;;;;;2040663;29;20439;-89
2021/09/16 06:44:03;;;;;;;1.63;0.60;;;15.10;90.60;;;;;;2047697;29;20051;-92
2021/09/16 06:45:22;;;;;;;0.90;0.50;;;15.10;90.60;;;;;;2042813;29;20035;-91
2021/09/16 06:46:42;;;;;;;0.85;0.50;;;15.20;90.60;;;;;;2045611;29;20040;-91
2021/09/16 06:48:02;;;;;;;2.28;0.60;;;15.20;90.60;;;;;;2050579;29;20048;-92
2021/09/16 06:49:21;;;;;;;1.00;0.60;;;15.20;90.60;;;;;;2056862;28;20054;-92
2021/09/16 06:50:41;;;;;;;0.73;0.40;;;15.20;90.60;;;;;;2054262;28;20047;-92
2021/09/16 06:52:00;;;;;;;1.35;0.50;;;15.20;90.60;;;;;;2055560;28;20055;-91
2021/09/16 06:53:19;;;;;;;2.13;0.68;;;15.20;90.60;;;;;;2051044;29;20043;-92
2021/09/16 06:54:38;;;;;;;4.45;0.68;;;15.30;90.60;;;;;;2051200;29;20051;-92
2021/09/16 06:55:57;;;;;;;1.45;0.60;;;15.30;90.50;;;;;;2043017;29;20123;-92
2021/09/16 06:57:17;;;;;;;1.70;0.70;;;15.30;90.50;;;;;;2039217;29;20805;-93